Time;durP1;ratioP1;P1;durP2;ratioP2;P2;SDS_P1;SDS_P2;PMS_P1;PMS_P2;Temp;Humidity;BMP_temperature;BMP_pressure;BME280_temperature;BME280_humidity;BME280_pressure;Samples;Min_cycle;Max_cycle;Signal;HPM_P1;HPM_P2
2022/10/10 00:02:23;;;;;;;8.25;3.83;;;;;;;;;;5054462;28;20546;-74
2022/10/10 00:04:51;;;;;;;6.28;2.83;;;;;;;;;;5070367;28;20074;-74
2022/10/10 00:07:19;;;;;;;6.78;3.50;;;;;;;;;;5071029;28;20096;-73
2022/10/10 00:09:45;;;;;;;5.45;2.70;;;;;;;;;;5071569;28;20053;-74
2022/10/10 00:12:11;;;;;;;6.78;2.80;;;;;;;;;;5055379;28;20069;-73
2022/10/10 00:14:37;;;;;;;7.10;3.25;;;;;;;;;;5054342;28;20059;-74
2022/10/10 00:17:04;;;;;;;7.35;2.90;;;;;;;;;;5071116;28;20553;-74
2022/10/10 00:19:30;;;;;;;5.85;2.90;;;;;;;;;;5072970;28;20613;-73
2022/10/10 00:21:59;;;;;;;10.88;3.75;;;;;;;;;;5071612;28;20068;-74
2022/10/10 00:24:25;;;;;;;12.20;3.20;;;;;;;;;;5073420;28;20404;-72
2022/10/10 00:26:54;;;;;;;10.48;3.85;;;;;;;;;;5054627;28;20061;-73
2022/10/10 00:29:20;;;;;;;7.18;3.00;;;;;;;;;;5057000;28;20051;-74
2022/10/10 00:31:46;;;;;;;7.18;2.70;;;;;;;;;;5054713;28;20065;-73
2022/10/10 00:34:13;;;;;;;6.53;2.67;;;;;;;;;;5056247;28;20056;-74
2022/10/10 00:36:39;;;;;;;10.02;4.05;;;;;;;;;;5072808;28;20033;-73
2022/10/10 00:39:06;;;;;;;11.65;4.82;;;;;;;;;;5056910;28;20049;-74
2022/10/10 00:41:32;;;;;;;7.88;4.05;;;;;;;;;;5071240;28;20056;-74
2022/10/10 00:44:03;;;;;;;8.25;3.47;;;;;;;;;;5070232;28;20041;-73
2022/10/10 00:46:29;;;;;;;5.47;3.25;;;;;;;;;;5068985;28;20041;-73
2022/10/10 00:48:55;;;;;;;9.27;3.22;;;;;;;;;;5054521;28;20517;-74
2022/10/10 00:51:21;;;;;;;7.43;3.30;;;;;;;;;;5070829;28;20076;-73
2022/10/10 00:53:52;;;;;;;6.30;3.33;;;;;;;;;;5072565;28;20099;-74
2022/10/10 00:56:20;;;;;;;12.70;3.90;;;;;;;;;;5053806;28;20045;-74
2022/10/10 00:58:52;;;;;;;6.47;2.67;;;;;;;;;;5054977;28;20041;-74
2022/10/10 01:01:19;;;;;;;5.75;2.38;;;;;;;;;;5070729;28;20052;-74
2022/10/10 01:03:45;;;;;;;7.97;3.53;;;;;;;;;;5053101;28;20080;-73
2022/10/10 01:06:11;;;;;;;8.40;3.83;;;;;;;;;;5070545;28;20483;-73
2022/10/10 01:08:37;;;;;;;7.85;4.38;;;;;;;;;;5053479;28;20111;-74
2022/10/10 01:11:12;;;;;;;6.60;2.83;;;;;;;;;;5068267;28;20047;-73
2022/10/10 01:13:46;;;;;;;7.00;2.42;;;;;;;;;;5067736;28;20055;-73
2022/10/10 01:16:20;;;;;;;9.05;3.90;;;;;;;;;;5067192;28;20049;-73
2022/10/10 01:18:46;;;;;;;11.23;3.65;;;;;;;;;;5066563;28;20041;-74
2022/10/10 01:21:31;;;;;;;7.20;2.90;;;;;;;;;;5069928;28;20554;-75
2022/10/10 01:24:20;;;;;;;7.18;2.50;;;;;;;;;;5050643;28;20536;-73
2022/10/10 01:26:46;;;;;;;6.30;2.63;;;;;;;;;;5048500;28;20044;-74
2022/10/10 01:29:16;;;;;;;8.40;3.38;;;;;;;;;;5068442;28;20052;-73
2022/10/10 01:31:46;;;;;;;10.80;3.03;;;;;;;;;;5061761;28;20053;-74
2022/10/10 01:34:22;;;;;;;7.15;2.42;;;;;;;;;;5065742;28;20040;-74
2022/10/10 01:36:49;;;;;;;5.20;2.75;;;;;;;;;;5071149;28;20056;-74
2022/10/10 01:39:41;;;;;;;6.22;2.83;;;;;;;;;;5067673;28;20095;-74
2022/10/10 01:42:10;;;;;;;;;;;;;;;;;;5050521;28;20049;-74
2022/10/10 01:44:36;;;;;;;4.65;2.97;;;;;;;;;;5046589;28;19921;-75
2022/10/10 01:47:02;;;;;;;9.98;3.47;;;;;;;;;;5067156;28;20038;-74
2022/10/10 01:49:31;;;;;;;5.07;2.25;;;;;;;;;;5065598;28;20040;-74
2022/10/10 01:52:03;;;;;;;7.30;2.45;;;;;;;;;;5062284;28;20815;-75
2022/10/10 01:54:41;;;;;;;4.30;2.33;;;;;;;;;;5066541;28;20044;-74
2022/10/10 01:57:10;;;;;;;6.72;3.03;;;;;;;;;;5054736;28;20040;-75
2022/10/10 01:59:55;;;;;;;7.88;2.90;;;;;;;;;;5051283;28;20061;-74
2022/10/10 02:02:47;;;;;;;10.52;4.07;;;;;;;;;;5052786;28;20044;-75
2022/10/10 02:05:13;;;;;;;;;;;;;;;;;;5048271;28;20152;-74
2022/10/10 02:07:43;;;;;;;3.50;2.05;;;;;;;;;;5048474;28;19925;-75
2022/10/10 02:10:11;;;;;;;7.78;2.70;;;;;;;;;;5069839;28;20075;-74
2022/10/10 02:12:39;;;;;;;6.63;2.97;;;;;;;;;;5069218;28;20044;-74
2022/10/10 02:15:10;;;;;;;5.70;2.88;;;;;;;;;;5054085;28;20785;-74
2022/10/10 02:17:38;;;;;;;7.90;3.47;;;;;;;;;;5055798;28;20124;-74
2022/10/10 02:20:05;;;;;;;5.32;2.70;;;;;;;;;;5054370;28;20176;-74
2022/10/10 02:22:32;;;;;;;5.07;2.72;;;;;;;;;;5056087;28;20896;-74
2022/10/10 02:24:58;;;;;;;11.02;3.13;;;;;;;;;;5070381;28;20052;-74
2022/10/10 02:27:36;;;;;;;6.35;3.17;;;;;;;;;;5073635;28;20056;-74
2022/10/10 02:30:05;;;;;;;5.50;3.58;;;;;;;;;;5057467;28;20080;-74
2022/10/10 02:32:46;;;;;;;5.95;3.38;;;;;;;;;;5057009;28;20040;-74
2022/10/10 02:35:15;;;;;;;8.85;4.18;;;;;;;;;;5058004;28;20067;-74
2022/10/10 02:37:41;;;;;;;4.93;3.45;;;;;;;;;;5073071;28;20659;-75
2022/10/10 02:40:08;;;;;;;8.98;3.65;;;;;;;;;;5059059;28;20053;-74
2022/10/10 02:42:35;;;;;;;6.38;3.20;;;;;;;;;;5071320;28;20119;-75
2022/10/10 02:45:03;;;;;;;8.15;3.67;;;;;;;;;;5054227;28;20044;-74
2022/10/10 02:47:29;;;;;;;7.00;3.60;;;;;;;;;;5057736;28;20600;-75
2022/10/10 02:49:56;;;;;;;5.97;3.13;;;;;;;;;;5074171;28;20045;-75
2022/10/10 02:52:22;;;;;;;5.93;3.72;;;;;;;;;;5071944;28;20363;-75
2022/10/10 02:54:48;;;;;;;8.68;3.67;;;;;;;;;;5073312;28;20039;-74
2022/10/10 02:57:16;;;;;;;9.88;4.07;;;;;;;;;;5065911;28;20518;-75
2022/10/10 02:59:42;;;;;;;6.50;3.40;;;;;;;;;;5073080;28;20053;-74
2022/10/10 03:02:11;;;;;;;13.57;3.25;;;;;;;;;;5055841;28;20048;-74
2022/10/10 03:04:37;;;;;;;5.70;3.00;;;;;;;;;;5073213;28;20043;-74
2022/10/10 03:07:04;;;;;;;18.38;6.10;;;;;;;;;;5074335;28;20041;-74
2022/10/10 03:09:30;;;;;;;10.52;4.20;;;;;;;;;;5072966;28;20137;-73
2022/10/10 03:11:56;;;;;;;9.90;4.57;;;;;;;;;;5071152;28;20048;-74
2022/10/10 03:14:23;;;;;;;15.18;4.82;;;;;;;;;;5071351;28;20041;-74
2022/10/10 03:16:49;;;;;;;8.13;3.67;;;;;;;;;;5070275;28;21881;-74
2022/10/10 03:19:15;;;;;;;12.77;4.65;;;;;;;;;;5056622;28;20048;-73
2022/10/10 03:21:41;;;;;;;7.45;3.78;;;;;;;;;;5055936;28;20091;-74
2022/10/10 03:24:07;;;;;;;10.88;3.15;;;;;;;;;;5073028;28;20095;-74
2022/10/10 03:26:33;;;;;;;5.57;3.35;;;;;;;;;;5073633;28;20056;-74
2022/10/10 03:29:01;;;;;;;5.45;3.28;;;;;;;;;;5070138;28;20053;-74
2022/10/10 03:31:27;;;;;;;5.28;3.03;;;;;;;;;;5070207;28;20047;-74
2022/10/10 03:33:53;;;;;;;6.82;3.63;;;;;;;;;;5068954;28;20041;-75
2022/10/10 03:36:20;;;;;;;9.73;3.28;;;;;;;;;;5072517;28;20041;-75
2022/10/10 03:38:46;;;;;;;5.45;2.92;;;;;;;;;;5070817;28;20045;-74
2022/10/10 03:41:12;;;;;;;7.10;2.80;;;;;;;;;;5072689;28;20122;-74
2022/10/10 03:43:38;;;;;;;7.07;2.78;;;;;;;;;;5072137;28;20052;-73
2022/10/10 03:46:04;;;;;;;5.20;2.85;;;;;;;;;;5055203;28;20098;-74
2022/10/10 03:48:31;;;;;;;9.10;2.75;;;;;;;;;;5054771;28;20565;-74
2022/10/10 03:51:00;;;;;;;9.45;4.03;;;;;;;;;;5055278;28;20052;-74
2022/10/10 03:53:29;;;;;;;7.75;3.05;;;;;;;;;;5053045;28;20078;-73
2022/10/10 03:55:55;;;;;;;7.03;2.45;;;;;;;;;;5072431;28;20055;-73
2022/10/10 03:58:21;;;;;;;14.00;2.95;;;;;;;;;;5071234;28;20037;-74
2022/10/10 04:00:57;;;;;;;3.75;2.97;;;;;;;;;;5070387;28;20214;-74
2022/10/10 04:03:24;;;;;;;5.30;2.80;;;;;;;;;;5054189;28;20556;-73
2022/10/10 04:05:50;;;;;;;7.68;3.13;;;;;;;;;;5067186;28;20041;-74
2022/10/10 04:08:19;;;;;;;9.93;3.20;;;;;;;;;;5067487;28;20572;-74
2022/10/10 04:10:50;;;;;;;6.00;2.60;;;;;;;;;;5069948;28;20136;-76
2022/10/10 04:13:16;;;;;;;7.38;4.28;;;;;;;;;;5056373;28;20049;-74
2022/10/10 04:15:42;;;;;;;10.15;3.20;;;;;;;;;;5071731;28;20541;-74
2022/10/10 04:18:08;;;;;;;9.15;3.25;;;;;;;;;;5055818;28;20072;-74
2022/10/10 04:20:34;;;;;;;9.98;3.35;;;;;;;;;;5070784;28;20084;-74
2022/10/10 04:23:01;;;;;;;6.18;2.70;;;;;;;;;;5054970;28;20775;-74
2022/10/10 04:25:27;;;;;;;6.90;2.72;;;;;;;;;;5072462;28;20053;-74
2022/10/10 04:27:56;;;;;;;7.45;3.67;;;;;;;;;;5063035;28;20053;-75
2022/10/10 04:30:23;;;;;;;7.15;2.63;;;;;;;;;;5071882;28;20048;-74
2022/10/10 04:32:49;;;;;;;6.35;3.13;;;;;;;;;;5064777;28;20061;-75
2022/10/10 04:35:15;;;;;;;4.35;2.65;;;;;;;;;;5068820;28;20616;-73
2022/10/10 04:37:44;;;;;;;10.60;3.33;;;;;;;;;;5055400;28;21021;-75
2022/10/10 04:40:10;;;;;;;5.85;2.55;;;;;;;;;;5069893;28;20053;-73
2022/10/10 04:42:40;;;;;;;5.95;3.08;;;;;;;;;;5070926;28;20096;-73
2022/10/10 04:45:06;;;;;;;6.20;3.28;;;;;;;;;;5055105;28;20051;-74
2022/10/10 04:47:32;;;;;;;4.78;3.22;;;;;;;;;;5069549;28;20072;-74
2022/10/10 04:50:01;;;;;;;7.07;3.28;;;;;;;;;;5070928;28;20075;-73
2022/10/10 04:52:30;;;;;;;9.10;3.50;;;;;;;;;;5073002;28;20116;-74
2022/10/10 04:54:56;;;;;;;8.15;3.33;;;;;;;;;;5071577;28;20052;-73
2022/10/10 04:57:22;;;;;;;6.30;2.85;;;;;;;;;;5071698;28;20045;-73
2022/10/10 04:59:51;;;;;;;7.03;2.72;;;;;;;;;;5056185;28;20029;-73
2022/10/10 05:02:23;;;;;;;8.40;3.20;;;;;;;;;;5048329;28;20755;-75
2022/10/10 05:04:52;;;;;;;8.60;2.85;;;;;;;;;;5069952;28;20095;-73
2022/10/10 05:07:18;;;;;;;5.55;2.80;;;;;;;;;;5069690;28;21167;-73
2022/10/10 05:09:54;;;;;;;7.03;3.65;;;;;;;;;;5066458;28;20044;-86
2022/10/10 05:12:20;;;;;;;6.13;3.30;;;;;;;;;;5070922;28;20049;-74
2022/10/10 05:14:46;;;;;;;7.35;3.08;;;;;;;;;;5068200;28;20061;-74
2022/10/10 05:17:12;;;;;;;7.50;2.70;;;;;;;;;;5053273;28;20045;-75
2022/10/10 05:19:41;;;;;;;4.80;2.72;;;;;;;;;;5057200;28;20076;-74
2022/10/10 05:22:10;;;;;;;9.43;3.10;;;;;;;;;;5071848;28;20045;-74
2022/10/10 05:24:36;;;;;;;7.72;2.70;;;;;;;;;;5071576;28;20041;-75
2022/10/10 05:27:03;;;;;;;6.43;3.00;;;;;;;;;;5073175;28;20881;-74
2022/10/10 05:29:29;;;;;;;5.90;3.08;;;;;;;;;;5072175;28;20048;-74
2022/10/10 05:31:55;;;;;;;5.82;3.20;;;;;;;;;;5071104;28;20079;-74
2022/10/10 05:34:21;;;;;;;5.53;3.10;;;;;;;;;;5063609;28;20626;-73
2022/10/10 05:36:47;;;;;;;5.18;3.05;;;;;;;;;;5071008;28;21257;-74
2022/10/10 05:39:16;;;;;;;11.27;3.85;;;;;;;;;;5048571;28;20246;-74
2022/10/10 05:41:42;;;;;;;17.10;3.85;;;;;;;;;;5054043;28;20037;-75
2022/10/10 05:44:09;;;;;;;9.10;3.00;;;;;;;;;;5052115;28;20045;-75
2022/10/10 05:46:35;;;;;;;6.63;3.10;;;;;;;;;;5070617;28;20045;-74
2022/10/10 05:49:03;;;;;;;8.77;5.20;;;;;;;;;;5061809;28;20075;-74
2022/10/10 05:51:30;;;;;;;8.20;3.33;;;;;;;;;;5054111;28;20099;-74
2022/10/10 05:54:03;;;;;;;5.82;3.42;;;;;;;;;;5069020;28;20639;-79
2022/10/10 05:56:44;;;;;;;7.28;2.97;;;;;;;;;;5052925;28;20045;-79
2022/10/10 05:59:10;;;;;;;7.80;3.08;;;;;;;;;;5071929;28;20531;-79
2022/10/10 06:01:36;;;;;;;6.05;3.13;;;;;;;;;;5054420;28;20084;-76
2022/10/10 06:04:07;;;;;;;8.95;3.50;;;;;;;;;;5072526;28;20045;-77
2022/10/10 06:06:33;;;;;;;5.55;3.08;;;;;;;;;;5071516;28;20581;-74
2022/10/10 06:08:59;;;;;;;6.40;3.08;;;;;;;;;;5066568;28;20049;-73
2022/10/10 06:11:29;;;;;;;7.80;3.15;;;;;;;;;;5071295;28;20041;-75
2022/10/10 06:13:56;;;;;;;5.70;3.20;;;;;;;;;;5070375;28;20573;-74
2022/10/10 06:16:23;;;;;;;8.38;3.35;;;;;;;;;;5068521;28;20084;-75
2022/10/10 06:18:50;;;;;;;13.20;5.05;;;;;;;;;;5052901;28;20048;-75
2022/10/10 06:21:16;;;;;;;5.43;3.25;;;;;;;;;;5066675;28;20041;-74
2022/10/10 06:23:43;;;;;;;9.63;2.72;;;;;;;;;;5055086;28;20037;-74
2022/10/10 06:26:09;;;;;;;8.13;3.85;;;;;;;;;;5068252;28;20061;-75
2022/10/10 06:28:36;;;;;;;7.13;3.28;;;;;;;;;;5069909;28;20042;-74
2022/10/10 06:31:04;;;;;;;6.70;3.08;;;;;;;;;;5066893;28;20048;-74
2022/10/10 06:33:30;;;;;;;9.70;4.22;;;;;;;;;;5051964;28;20042;-74
2022/10/10 06:35:56;;;;;;;11.38;3.95;;;;;;;;;;5053405;28;20519;-74
2022/10/10 06:38:22;;;;;;;15.93;3.75;;;;;;;;;;5070872;28;20041;-75
2022/10/10 06:40:49;;;;;;;6.38;3.17;;;;;;;;;;5069835;28;20037;-74
2022/10/10 06:43:15;;;;;;;6.75;3.65;;;;;;;;;;5052130;28;20522;-74
2022/10/10 06:45:46;;;;;;;8.95;3.30;;;;;;;;;;5063774;28;20045;-74
2022/10/10 06:48:13;;;;;;;5.03;3.03;;;;;;;;;;5050402;28;20052;-75
2022/10/10 06:50:39;;;;;;;10.85;3.10;;;;;;;;;;5066283;28;20096;-74
2022/10/10 06:53:06;;;;;;;8.20;2.65;;;;;;;;;;5067292;28;20108;-75
2022/10/10 06:55:32;;;;;;;10.13;3.70;;;;;;;;;;5052567;28;20531;-75
2022/10/10 06:57:59;;;;;;;14.77;5.32;;;;;;;;;;5066970;28;20087;-75
2022/10/10 07:00:25;;;;;;;7.63;2.92;;;;;;;;;;5073351;28;20033;-75
2022/10/10 07:02:55;;;;;;;8.98;3.85;;;;;;;;;;5073533;28;20558;-74
2022/10/10 07:05:21;;;;;;;6.78;3.22;;;;;;;;;;5064481;28;20041;-75
2022/10/10 07:07:47;;;;;;;12.85;3.45;;;;;;;;;;5063140;28;20950;-75
2022/10/10 07:10:16;;;;;;;6.25;4.30;;;;;;;;;;5059203;28;20095;-75
2022/10/10 07:12:44;;;;;;;5.72;3.40;;;;;;;;;;5070994;28;20051;-75
2022/10/10 07:15:10;;;;;;;6.68;3.25;;;;;;;;;;5057566;28;20096;-76
2022/10/10 07:17:42;;;;;;;5.55;3.55;;;;;;;;;;5073172;28;20127;-75
2022/10/10 07:20:08;;;;;;;7.07;3.90;;;;;;;;;;5057713;28;20463;-76
2022/10/10 07:22:37;;;;;;;9.77;3.40;;;;;;;;;;5074195;28;20053;-76
2022/10/10 07:25:03;;;;;;;12.95;4.35;;;;;;;;;;5057699;28;20055;-75
2022/10/10 07:27:32;;;;;;;9.90;4.63;;;;;;;;;;5064152;28;20280;-75
2022/10/10 07:30:01;;;;;;;11.88;5.18;;;;;;;;;;5073442;28;20041;-75
2022/10/10 07:32:30;;;;;;;14.00;7.22;;;;;;;;;;5058159;28;20140;-75
2022/10/10 07:34:57;;;;;;;13.65;5.43;;;;;;;;;;5075444;28;20163;-75
2022/10/10 07:37:23;;;;;;;13.95;5.85;;;;;;;;;;5073606;28;20176;-75
2022/10/10 07:39:51;;;;;;;7.63;3.80;;;;;;;;;;5073819;28;20072;-75
2022/10/10 07:42:18;;;;;;;15.18;5.20;;;;;;;;;;5065025;28;20041;-75
2022/10/10 07:44:44;;;;;;;17.75;7.25;;;;;;;;;;5060380;28;20045;-75
2022/10/10 07:47:10;;;;;;;10.88;5.70;;;;;;;;;;5057749;28;20048;-75
2022/10/10 07:49:37;;;;;;;10.07;5.28;;;;;;;;;;5059561;28;20044;-75
2022/10/10 07:52:03;;;;;;;12.50;4.60;;;;;;;;;;5074286;28;20071;-75
2022/10/10 07:54:30;;;;;;;11.23;4.78;;;;;;;;;;5057360;28;20120;-75
2022/10/10 07:56:56;;;;;;;14.10;4.07;;;;;;;;;;5058461;28;20048;-75
2022/10/10 07:59:23;;;;;;;12.55;5.05;;;;;;;;;;5072981;28;20138;-75
2022/10/10 08:01:49;;;;;;;8.90;4.60;;;;;;;;;;5072430;28;20048;-74
2022/10/10 08:04:16;;;;;;;8.98;3.85;;;;;;;;;;5058665;28;20072;-75
2022/10/10 08:06:42;;;;;;;16.45;5.03;;;;;;;;;;5057545;28;20523;-75
2022/10/10 08:09:08;;;;;;;10.93;4.78;;;;;;;;;;5056716;28;20596;-75
2022/10/10 08:11:37;;;;;;;16.33;6.20;;;;;;;;;;5070309;28;20052;-75
2022/10/10 08:14:03;;;;;;;12.27;4.18;;;;;;;;;;5069647;28;20054;-75
2022/10/10 08:16:29;;;;;;;12.15;4.95;;;;;;;;;;5071211;28;20038;-75
2022/10/10 08:18:56;;;;;;;9.73;4.72;;;;;;;;;;5063542;28;20492;-75
2022/10/10 08:21:22;;;;;;;9.40;5.30;;;;;;;;;;5073892;28;20033;-74
2022/10/10 08:23:48;;;;;;;14.57;5.97;;;;;;;;;;5072647;28;20045;-74
2022/10/10 08:26:16;;;;;;;11.00;4.15;;;;;;;;;;5072632;28;20083;-74
2022/10/10 08:28:42;;;;;;;8.25;4.55;;;;;;;;;;5055303;28;20056;-75
2022/10/10 08:31:10;;;;;;;13.70;5.93;;;;;;;;;;5055569;28;20044;-75
2022/10/10 08:33:36;;;;;;;14.52;4.82;;;;;;;;;;5055814;28;20041;-75
2022/10/10 08:36:06;;;;;;;31.15;6.75;;;;;;;;;;5056531;28;20041;-75
2022/10/10 08:38:33;;;;;;;16.80;5.93;;;;;;;;;;5057122;28;20052;-75
2022/10/10 08:41:00;;;;;;;16.77;5.22;;;;;;;;;;5073060;28;20099;-75
2022/10/10 08:43:31;;;;;;;13.27;5.15;;;;;;;;;;5055089;28;20049;-74
2022/10/10 08:45:58;;;;;;;12.48;5.63;;;;;;;;;;5070632;28;20135;-75
2022/10/10 08:48:27;;;;;;;15.35;6.85;;;;;;;;;;5057818;28;20044;-75
2022/10/10 08:50:56;;;;;;;22.33;6.78;;;;;;;;;;5071318;28;20880;-74
2022/10/10 08:53:38;;;;;;;14.27;6.75;;;;;;;;;;5055007;28;20140;-75
2022/10/10 08:56:10;;;;;;;18.20;7.55;;;;;;;;;;5071338;28;20103;-75
2022/10/10 08:58:38;;;;;;;18.13;7.32;;;;;;;;;;5071568;28;20056;-75
2022/10/10 09:01:14;;;;;;;23.67;8.40;;;;;;;;;;5055839;28;20653;-75
2022/10/10 09:03:46;;;;;;;22.60;8.68;;;;;;;;;;5072222;28;20084;-74
2022/10/10 09:06:16;;;;;;;22.20;11.77;;;;;;;;;;5069698;28;20060;-75
2022/10/10 09:09:01;;;;;;;24.90;11.30;;;;;;;;;;5057149;28;20033;-75
2022/10/10 09:11:46;;;;;;;25.10;11.18;;;;;;;;;;5049042;28;20063;-75
2022/10/10 09:14:15;;;;;;;28.80;11.85;;;;;;;;;;5057847;28;20052;-75
2022/10/10 09:16:50;;;;;;;29.48;11.10;;;;;;;;;;5054548;28;20080;-75
2022/10/10 09:19:30;;;;;;;26.58;9.70;;;;;;;;;;5072356;28;20110;-75
2022/10/10 09:21:58;;;;;;;26.85;12.52;;;;;;;;;;5071849;28;20056;-75
2022/10/10 09:24:36;;;;;;;32.35;12.90;;;;;;;;;;5054217;28;20049;-75
2022/10/10 09:27:04;;;;;;;29.02;11.63;;;;;;;;;;5054585;28;20665;-75
2022/10/10 09:29:39;;;;;;;25.77;12.48;;;;;;;;;;5056277;28;20041;-75
2022/10/10 09:32:14;;;;;;;25.10;12.90;;;;;;;;;;5056526;28;20124;-75
2022/10/10 09:34:55;;;;;;;26.35;12.95;;;;;;;;;;5054821;28;20044;-74
2022/10/10 09:37:24;;;;;;;36.90;12.65;;;;;;;;;;5057297;28;20040;-74
2022/10/10 09:39:53;;;;;;;34.05;11.55;;;;;;;;;;5055155;28;20124;-75
2022/10/10 09:42:22;;;;;;;25.92;13.35;;;;;;;;;;5073154;28;20041;-75
2022/10/10 09:44:48;;;;;;;24.67;12.02;;;;;;;;;;5048865;28;20738;-75
2022/10/10 09:47:16;;;;;;;32.22;12.13;;;;;;;;;;5048465;28;20037;-74
2022/10/10 09:49:43;;;;;;;34.97;13.60;;;;;;;;;;5072039;28;20036;-74
2022/10/10 09:52:21;;;;;;;28.45;12.88;;;;;;;;;;5055718;28;20251;-76
2022/10/10 09:54:48;;;;;;;33.97;13.73;;;;;;;;;;5072018;28;20025;-75
2022/10/10 09:57:15;;;;;;;27.08;12.25;;;;;;;;;;5056729;28;20443;-74
2022/10/10 09:59:46;;;;;;;26.17;11.52;;;;;;;;;;5057218;28;20052;-75
2022/10/10 10:02:12;;;;;;;27.33;12.63;;;;;;;;;;5055638;28;20037;-74
2022/10/10 10:04:38;;;;;;;29.65;12.43;;;;;;;;;;5054818;28;20056;-74
2022/10/10 10:07:07;;;;;;;24.65;11.30;;;;;;;;;;5070931;28;20640;-74
2022/10/10 10:09:34;;;;;;;31.70;12.30;;;;;;;;;;5055360;28;20505;-73
2022/10/10 10:12:00;;;;;;;24.30;11.55;;;;;;;;;;5054409;28;20044;-74
2022/10/10 10:14:28;;;;;;;26.10;11.75;;;;;;;;;;5069579;28;20052;-74
2022/10/10 10:16:55;;;;;;;24.75;10.90;;;;;;;;;;5055363;28;20043;-76
2022/10/10 10:19:34;;;;;;;26.85;10.32;;;;;;;;;;5056309;28;20041;-76
2022/10/10 10:22:01;;;;;;;20.20;10.95;;;;;;;;;;5049033;28;20122;-75
2022/10/10 10:24:35;;;;;;;19.45;11.32;;;;;;;;;;5071997;28;20053;-75
2022/10/10 10:27:20;;;;;;;24.08;10.98;;;;;;;;;;5054121;28;20057;-73
2022/10/10 10:29:50;;;;;;;27.05;11.75;;;;;;;;;;5056969;28;20640;-74
2022/10/10 10:32:30;;;;;;;23.13;9.73;;;;;;;;;;5053481;28;20048;-75
2022/10/10 10:35:00;;;;;;;26.80;10.60;;;;;;;;;;5058843;28;20056;-75
2022/10/10 10:37:38;;;;;;;26.45;12.57;;;;;;;;;;5057802;28;20091;-74
2022/10/10 10:40:37;;;;;;;23.77;11.48;;;;;;;;;;5059145;28;20043;-75
2022/10/10 10:43:12;;;;;;;24.67;11.07;;;;;;;;;;5056756;28;20104;-74
2022/10/10 10:45:41;;;;;;;29.67;11.52;;;;;;;;;;5056937;28;20164;-75
2022/10/10 10:48:20;;;;;;;22.58;13.05;;;;;;;;;;5052724;28;20048;-76
2022/10/10 10:50:46;;;;;;;18.15;9.77;;;;;;;;;;5074737;28;20041;-76
2022/10/10 10:53:21;;;;;;;20.27;9.48;;;;;;;;;;5057198;28;20045;-75
2022/10/10 10:55:55;;;;;;;17.08;9.35;;;;;;;;;;5074195;28;20126;-75
2022/10/10 10:58:39;;;;;;;17.67;7.50;;;;;;;;;;5057019;28;20045;-76
2022/10/10 11:01:12;;;;;;;16.92;7.35;;;;;;;;;;5076466;28;20056;-75
2022/10/10 11:03:41;;;;;;;15.30;6.35;;;;;;;;;;5072661;28;20052;-75
2022/10/10 11:06:23;;;;;;;14.82;7.57;;;;;;;;;;5057699;28;20041;-75
2022/10/10 11:08:59;;;;;;;11.85;6.43;;;;;;;;;;5058110;28;20145;-75
2022/10/10 11:11:25;;;;;;;17.05;7.13;;;;;;;;;;5077495;28;20531;-75
2022/10/10 11:13:56;;;;;;;18.70;7.55;;;;;;;;;;5058997;28;20033;-74
2022/10/10 11:16:55;;;;;;;14.05;8.07;;;;;;;;;;5069199;28;20153;-74
2022/10/10 11:19:31;;;;;;;18.15;7.85;;;;;;;;;;5051704;28;20045;-74
2022/10/10 11:21:57;;;;;;;16.38;6.97;;;;;;;;;;5075350;28;20800;-75
2022/10/10 11:24:43;;;;;;;14.75;7.57;;;;;;;;;;5075715;28;20044;-75
2022/10/10 11:27:13;;;;;;;13.20;7.13;;;;;;;;;;5058851;28;20135;-75
2022/10/10 11:30:01;;;;;;;15.05;8.18;;;;;;;;;;5079993;28;20065;-75
2022/10/10 11:32:31;;;;;;;13.70;7.15;;;;;;;;;;5052107;28;20083;-76
2022/10/10 11:34:57;;;;;;;19.17;9.25;;;;;;;;;;5074601;28;20033;-75
2022/10/10 11:37:29;;;;;;;18.27;8.68;;;;;;;;;;5059189;28;20519;-75
2022/10/10 11:40:01;;;;;;;;;;;;;;;;;;5058135;28;21201;-75
2022/10/10 11:42:40;;;;;;;21.30;8.07;;;;;;;;;;5056700;28;19921;-79
2022/10/10 11:45:17;;;;;;;15.77;6.95;;;;;;;;;;5071451;28;20044;-71
2022/10/10 11:48:03;;;;;;;14.48;8.13;;;;;;;;;;5054675;28;20829;-70
2022/10/10 11:50:39;;;;;;;21.27;6.97;;;;;;;;;;5069619;28;20056;-70
2022/10/10 11:53:05;;;;;;;20.90;7.90;;;;;;;;;;5057071;28;20040;-71
2022/10/10 11:55:43;;;;;;;15.32;6.63;;;;;;;;;;5073349;28;20033;-71
2022/10/10 11:58:09;;;;;;;18.45;8.15;;;;;;;;;;5070182;28;20127;-72
2022/10/10 12:00:47;;;;;;;16.13;6.75;;;;;;;;;;5056966;28;20033;-71
2022/10/10 12:03:14;;;;;;;15.02;7.13;;;;;;;;;;5073105;28;20239;-71
2022/10/10 12:05:42;;;;;;;17.67;7.95;;;;;;;;;;5073138;28;20044;-72
2022/10/10 12:08:08;;;;;;;15.98;6.97;;;;;;;;;;5074758;28;20048;-72
2022/10/10 12:10:46;;;;;;;14.00;6.88;;;;;;;;;;5056196;28;20049;-72
2022/10/10 12:13:31;;;;;;;14.63;6.75;;;;;;;;;;5073199;28;20033;-72
2022/10/10 12:16:01;;;;;;;14.43;7.32;;;;;;;;;;5058283;28;20048;-71
2022/10/10 12:18:38;;;;;;;13.32;7.13;;;;;;;;;;5056165;28;20099;-72
2022/10/10 12:21:06;;;;;;;9.80;5.55;;;;;;;;;;5057089;28;20116;-71
2022/10/10 12:23:32;;;;;;;18.80;8.23;;;;;;;;;;5056713;28;20064;-71
2022/10/10 12:26:01;;;;;;;14.88;7.68;;;;;;;;;;5056311;28;20048;-71
2022/10/10 12:28:29;;;;;;;15.20;6.10;;;;;;;;;;5073466;28;20057;-71
2022/10/10 12:30:55;;;;;;;16.10;7.55;;;;;;;;;;5056082;28;20037;-71
2022/10/10 12:33:43;;;;;;;13.07;6.35;;;;;;;;;;5072183;28;20048;-71
2022/10/10 12:36:18;;;;;;;13.88;7.07;;;;;;;;;;5057470;28;20048;-72
2022/10/10 12:39:05;;;;;;;15.15;5.80;;;;;;;;;;5055173;28;20060;-71
2022/10/10 12:41:50;;;;;;;14.18;6.65;;;;;;;;;;5071949;28;20037;-71
2022/10/10 12:44:20;;;;;;;12.25;6.50;;;;;;;;;;5064675;28;20145;-71
2022/10/10 12:46:50;;;;;;;13.07;5.32;;;;;;;;;;5053827;28;20215;-71
2022/10/10 12:49:23;;;;;;;12.48;6.20;;;;;;;;;;5072017;28;20730;-71
2022/10/10 12:52:13;;;;;;;12.43;5.35;;;;;;;;;;5070846;28;20041;-71
2022/10/10 12:54:43;;;;;;;11.55;5.60;;;;;;;;;;5048375;28;20061;-71
2022/10/10 12:57:18;;;;;;;17.60;6.45;;;;;;;;;;5055421;28;20040;-72
2022/10/10 12:59:44;;;;;;;11.60;5.53;;;;;;;;;;5055016;28;20045;-71
2022/10/10 13:02:36;;;;;;;11.95;4.97;;;;;;;;;;5071974;28;20068;-71
2022/10/10 13:05:03;;;;;;;13.93;6.65;;;;;;;;;;5046395;28;20045;-71
2022/10/10 13:07:30;;;;;;;18.38;5.85;;;;;;;;;;5072219;28;20045;-71
2022/10/10 13:10:04;;;;;;;10.23;5.70;;;;;;;;;;5054450;28;20048;-71
2022/10/10 13:12:31;;;;;;;12.45;6.57;;;;;;;;;;5052955;28;20044;-71
2022/10/10 13:15:00;;;;;;;15.32;5.85;;;;;;;;;;5070743;28;20060;-71
2022/10/10 13:17:45;;;;;;;11.52;5.07;;;;;;;;;;5055763;28;20045;-71
2022/10/10 13:20:36;;;;;;;13.88;5.22;;;;;;;;;;5071147;28;20439;-71
2022/10/10 13:23:07;;;;;;;10.48;5.07;;;;;;;;;;5073644;28;20044;-71
2022/10/10 13:25:34;;;;;;;12.00;5.93;;;;;;;;;;5072121;28;20045;-72
2022/10/10 13:28:00;;;;;;;14.60;5.40;;;;;;;;;;5055208;28;20045;-72
2022/10/10 13:30:27;;;;;;;11.95;5.93;;;;;;;;;;5055262;28;20088;-71
2022/10/10 13:32:59;;;;;;;14.13;5.88;;;;;;;;;;5069807;28;20071;-71
2022/10/10 13:35:31;;;;;;;16.08;6.30;;;;;;;;;;5072555;28;20048;-71
2022/10/10 13:38:07;;;;;;;15.63;6.50;;;;;;;;;;5069694;28;20115;-70
2022/10/10 13:40:40;;;;;;;14.18;5.15;;;;;;;;;;5064192;28;20127;-71
2022/10/10 13:43:17;;;;;;;10.35;4.80;;;;;;;;;;5053000;28;20270;-71
2022/10/10 13:45:49;;;;;;;15.13;4.85;;;;;;;;;;5055628;28;20140;-71
2022/10/10 13:48:20;;;;;;;14.25;5.53;;;;;;;;;;5070377;28;20045;-71
2022/10/10 13:51:09;;;;;;;13.30;4.93;;;;;;;;;;5047939;28;20050;-73
2022/10/10 13:54:00;;;;;;;15.15;5.72;;;;;;;;;;5048179;28;20124;-71
2022/10/10 13:56:30;;;;;;;8.95;4.80;;;;;;;;;;5054404;28;20051;-72
2022/10/10 14:02:13;;;;;;;13.23;5.53;;;;;;;;;;5051572;28;20550;-71
2022/10/10 14:04:48;;;;;;;15.23;6.53;;;;;;;;;;5072004;28;20135;-71
2022/10/10 14:07:18;;;;;;;17.08;6.57;;;;;;;;;;5074602;28;20131;-72
2022/10/10 14:09:50;;;;;;;14.70;6.28;;;;;;;;;;5059325;28;20037;-72
2022/10/10 14:12:40;;;;;;;11.00;5.45;;;;;;;;;;5058029;28;20049;-71
2022/10/10 14:15:26;;;;;;;16.20;5.47;;;;;;;;;;5058770;28;20311;-72
2022/10/10 14:18:06;;;;;;;13.68;6.68;;;;;;;;;;5072787;28;20037;-71
2022/10/10 14:20:39;;;;;;;15.98;5.85;;;;;;;;;;5058387;28;20127;-70
2022/10/10 14:23:18;;;;;;;9.68;5.25;;;;;;;;;;5074937;28;20092;-71
2022/10/10 14:25:56;;;;;;;14.27;6.80;;;;;;;;;;5057281;28;20036;-71
2022/10/10 14:28:25;;;;;;;13.63;5.00;;;;;;;;;;5058531;28;20041;-72
2022/10/10 14:30:51;;;;;;;15.88;9.60;;;;;;;;;;5075348;28;20128;-71
2022/10/10 14:33:18;;;;;;;15.35;7.50;;;;;;;;;;5073443;28;20533;-71
2022/10/10 14:35:48;;;;;;;17.95;5.43;;;;;;;;;;5059985;28;20040;-70
2022/10/10 14:38:14;;;;;;;11.77;5.68;;;;;;;;;;5058581;28;20049;-70
2022/10/10 14:40:48;;;;;;;13.70;5.28;;;;;;;;;;5057770;28;20041;-70
2022/10/10 14:43:15;;;;;;;10.95;5.45;;;;;;;;;;5075286;28;20056;-71
2022/10/10 14:45:51;;;;;;;9.35;4.68;;;;;;;;;;5058315;28;20135;-71
2022/10/10 14:48:19;;;;;;;12.02;6.05;;;;;;;;;;5073888;28;20567;-71
2022/10/10 14:50:46;;;;;;;9.82;4.95;;;;;;;;;;5075013;28;20033;-72
2022/10/10 14:53:15;;;;;;;13.27;4.90;;;;;;;;;;5075084;28;20368;-71
2022/10/10 14:55:44;;;;;;;10.35;5.40;;;;;;;;;;5058664;28;20179;-71
2022/10/10 14:58:13;;;;;;;10.32;5.93;;;;;;;;;;5059392;28;20171;-71